createdAt,value
2022-12-31T00:00:14.927Z,3.08
2022-12-31T00:02:41.974Z,3.30
2022-12-31T00:05:09.485Z,3.60
2022-12-31T00:10:03.498Z,2.63
2022-12-31T00:12:30.358Z,2.40
2022-12-31T00:14:57.196Z,2.30
2022-12-31T00:17:24.102Z,1.88
2022-12-31T00:19:50.919Z,2.05
2022-12-31T00:22:17.759Z,1.40
2022-12-31T00:24:44.635Z,1.30
2022-12-31T00:27:11.503Z,1.50
2022-12-31T00:32:05.696Z,1.23
2022-12-31T00:34:32.556Z,1.30
2022-12-31T00:36:59.446Z,1.23
2022-12-31T00:39:26.299Z,3.20
2022-12-31T00:41:53.207Z,2.80
2022-12-31T00:44:20.085Z,2.33
2022-12-31T00:46:46.891Z,1.80
2022-12-31T00:49:13.868Z,2.25
2022-12-31T00:51:40.763Z,1.75
2022-12-31T00:54:08.616Z,1.58
2022-12-31T00:56:35.494Z,1.40
2022-12-31T00:59:02.388Z,1.48
2022-12-31T01:01:32.414Z,1.52
2022-12-31T01:04:02.002Z,1.35
2022-12-31T01:06:28.975Z,1.10
2022-12-31T01:08:55.856Z,1.13
2022-12-31T01:11:23.806Z,1.00
2022-12-31T01:14:02.719Z,0.98
2022-12-31T01:16:55.900Z,1.00
2022-12-31T01:19:25.864Z,1.00
2022-12-31T01:21:53.099Z,0.75
2022-12-31T01:24:20.507Z,0.70
2022-12-31T01:26:47.746Z,0.90
2022-12-31T01:29:15.025Z,0.82
2022-12-31T01:31:42.171Z,1.05
2022-12-31T01:34:09.389Z,0.65
2022-12-31T01:36:37.974Z,0.70
2022-12-31T01:39:06.814Z,0.80
2022-12-31T01:41:36.737Z,0.40
2022-12-31T01:44:23.791Z,0.63
2022-12-31T01:46:58.795Z,0.60
2022-12-31T01:49:40.496Z,0.65
2022-12-31T01:52:31.578Z,0.70
2022-12-31T01:55:07.879Z,0.60
2022-12-31T01:57:35.788Z,0.40
2022-12-31T02:00:02.944Z,0.55
2022-12-31T02:02:29.894Z,0.40
2022-12-31T02:04:58.622Z,0.50
2022-12-31T02:07:26.037Z,0.50
2022-12-31T02:09:54.000Z,0.50
2022-12-31T02:12:21.110Z,0.50
2022-12-31T02:14:51.713Z,0.50
2022-12-31T02:17:32.852Z,0.40
2022-12-31T02:20:05.493Z,0.40
2022-12-31T02:22:54.015Z,0.50
2022-12-31T02:25:34.840Z,0.47
2022-12-31T02:28:39.198Z,0.40
2022-12-31T02:31:18.953Z,0.47
2022-12-31T02:36:21.215Z,0.47
2022-12-31T02:38:48.981Z,0.40
2022-12-31T02:41:36.485Z,0.32
2022-12-31T02:44:21.138Z,0.40
2022-12-31T02:47:14.673Z,0.40
2022-12-31T02:49:59.983Z,0.40
2022-12-31T02:52:26.827Z,0.40
2022-12-31T02:55:20.292Z,0.25
2022-12-31T02:58:02.125Z,0.40
2022-12-31T03:03:19.603Z,0.40
2022-12-31T03:05:48.463Z,0.30
2022-12-31T03:08:25.987Z,0.30
2022-12-31T03:10:52.892Z,0.43
2022-12-31T03:13:19.865Z,0.30
2022-12-31T03:15:46.763Z,0.30
2022-12-31T03:18:15.668Z,0.38
2022-12-31T03:21:03.351Z,0.30
2022-12-31T03:23:36.142Z,0.28
2022-12-31T03:26:10.204Z,0.35
2022-12-31T03:28:38.805Z,0.30
2022-12-31T03:31:06.024Z,0.30
2022-12-31T03:33:35.294Z,0.30
2022-12-31T03:36:10.787Z,0.32
2022-12-31T03:38:37.811Z,0.50
2022-12-31T03:41:04.913Z,0.50
2022-12-31T03:43:32.024Z,0.20
2022-12-31T03:46:01.280Z,0.40
2022-12-31T03:48:28.272Z,0.30
2022-12-31T03:50:55.225Z,0.30
2022-12-31T03:53:22.063Z,0.30
2022-12-31T03:55:53.392Z,0.40
2022-12-31T03:58:20.478Z,0.32
2022-12-31T04:00:47.349Z,0.30
2022-12-31T04:03:14.279Z,0.30
2022-12-31T04:05:41.270Z,0.30
2022-12-31T04:08:08.086Z,0.30
2022-12-31T04:10:35.007Z,0.43
2022-12-31T04:13:04.710Z,0.35
2022-12-31T04:15:32.223Z,0.40
2022-12-31T04:17:59.055Z,0.47
2022-12-31T04:20:25.932Z,0.50
2022-12-31T04:22:52.765Z,0.30
2022-12-31T04:25:19.611Z,0.40
2022-12-31T04:27:46.455Z,0.40
2022-12-31T04:30:13.952Z,0.40
2022-12-31T04:32:41.444Z,0.52
2022-12-31T04:35:09.144Z,0.30
2022-12-31T04:37:36.038Z,0.30
2022-12-31T04:40:06.134Z,0.20
2022-12-31T04:42:33.498Z,0.50
2022-12-31T04:45:00.356Z,0.20
2022-12-31T04:47:27.240Z,0.28
2022-12-31T04:49:54.033Z,0.40
2022-12-31T04:52:20.941Z,0.40
2022-12-31T04:54:47.779Z,0.30
2022-12-31T04:57:14.615Z,0.40
2022-12-31T04:59:41.473Z,0.40
2022-12-31T05:02:08.558Z,0.20
2022-12-31T05:04:35.623Z,0.40
2022-12-31T05:07:02.473Z,0.40
2022-12-31T05:09:29.798Z,0.20
2022-12-31T05:11:57.043Z,0.25
2022-12-31T05:14:23.893Z,0.20
2022-12-31T05:16:50.793Z,0.40
2022-12-31T05:19:17.714Z,0.22
2022-12-31T05:24:31.772Z,0.20
2022-12-31T05:26:58.578Z,0.30
2022-12-31T05:29:25.382Z,0.30
2022-12-31T05:31:52.425Z,0.22
2022-12-31T05:34:19.323Z,0.20
2022-12-31T05:36:46.174Z,0.40
2022-12-31T05:39:12.971Z,0.35
2022-12-31T05:41:39.806Z,0.28
2022-12-31T05:44:06.658Z,0.32
2022-12-31T05:46:33.543Z,0.30
2022-12-31T05:49:00.403Z,0.40
2022-12-31T05:51:27.242Z,0.30
2022-12-31T05:53:54.086Z,0.57
2022-12-31T05:56:20.899Z,0.20
2022-12-31T05:58:47.717Z,0.30
2022-12-31T06:01:14.554Z,0.20
2022-12-31T06:03:41.981Z,0.40
2022-12-31T06:06:08.851Z,0.30
2022-12-31T06:08:35.715Z,0.22
2022-12-31T06:11:02.543Z,0.30
2022-12-31T06:13:29.458Z,0.32
2022-12-31T06:15:56.339Z,0.40
2022-12-31T06:18:23.238Z,0.50
2022-12-31T06:20:50.072Z,0.38
2022-12-31T06:23:16.846Z,0.38
2022-12-31T06:25:43.817Z,0.30
2022-12-31T06:28:16.145Z,0.20
2022-12-31T06:30:47.330Z,0.38
2022-12-31T06:33:14.390Z,0.30
2022-12-31T06:35:41.254Z,0.40
2022-12-31T06:38:08.052Z,0.35
2022-12-31T06:40:37.612Z,0.30
2022-12-31T06:43:04.469Z,0.40
2022-12-31T06:45:31.268Z,0.43
2022-12-31T06:47:58.120Z,0.20
2022-12-31T06:50:24.924Z,0.17
2022-12-31T06:52:51.743Z,0.30
2022-12-31T06:55:18.929Z,0.30
2022-12-31T06:57:46.046Z,0.30
2022-12-31T07:00:13.560Z,0.28
2022-12-31T07:03:00.576Z,0.60
2022-12-31T07:05:36.748Z,0.40
2022-12-31T07:08:33.383Z,0.30
2022-12-31T07:11:06.424Z,0.25
2022-12-31T07:14:17.511Z,0.22
2022-12-31T07:17:02.870Z,0.52
2022-12-31T07:19:51.046Z,0.32
2022-12-31T07:22:21.170Z,0.40
2022-12-31T07:24:48.345Z,0.40
2022-12-31T07:28:02.949Z,0.30
2022-12-31T07:31:16.112Z,0.30
2022-12-31T07:33:59.568Z,0.40
2022-12-31T07:36:52.832Z,0.40
2022-12-31T07:39:39.591Z,0.30
2022-12-31T07:42:28.389Z,0.30
2022-12-31T07:45:13.238Z,0.40
2022-12-31T07:47:40.307Z,0.30
2022-12-31T07:50:11.981Z,0.32
2022-12-31T07:52:39.049Z,0.35
2022-12-31T07:55:06.194Z,0.30
2022-12-31T07:57:39.439Z,0.38
2022-12-31T08:00:09.566Z,0.25
2022-12-31T08:02:55.085Z,0.35
2022-12-31T08:05:42.702Z,0.40
2022-12-31T08:08:37.111Z,0.30
2022-12-31T08:11:18.646Z,0.40
2022-12-31T08:13:45.933Z,0.30
2022-12-31T08:16:13.786Z,0.57
2022-12-31T08:18:41.132Z,0.32
2022-12-31T08:21:37.468Z,0.30
2022-12-31T08:24:11.087Z,0.30
2022-12-31T08:27:02.411Z,0.22
2022-12-31T08:29:48.049Z,0.20
2022-12-31T08:32:42.226Z,0.32
2022-12-31T08:35:33.259Z,0.32
2022-12-31T08:38:26.174Z,0.35
2022-12-31T08:41:16.733Z,0.50
2022-12-31T08:43:53.595Z,0.30
2022-12-31T08:46:36.753Z,0.50
2022-12-31T08:49:03.912Z,0.38
2022-12-31T08:51:30.985Z,0.50
2022-12-31T08:53:57.990Z,0.40
2022-12-31T08:56:43.737Z,0.35
2022-12-31T08:59:40.501Z,0.25
2022-12-31T09:02:07.404Z,0.50
2022-12-31T09:04:59.368Z,0.30
2022-12-31T09:10:17.599Z,0.35
2022-12-31T09:13:03.497Z,0.40
2022-12-31T09:15:42.690Z,0.57
2022-12-31T09:18:10.267Z,0.40
2022-12-31T09:20:44.968Z,0.60
2022-12-31T09:23:12.746Z,0.60
2022-12-31T09:26:05.899Z,0.40
2022-12-31T09:29:04.487Z,0.50
2022-12-31T09:31:58.216Z,0.50
2022-12-31T09:34:36.254Z,0.50
2022-12-31T09:37:24.090Z,0.55
2022-12-31T09:39:51.195Z,0.50
2022-12-31T09:42:39.300Z,0.43
2022-12-31T09:45:31.038Z,0.65
2022-12-31T09:48:29.114Z,0.52
2022-12-31T09:51:25.440Z,0.50
2022-12-31T09:54:15.903Z,0.30
2022-12-31T09:57:01.541Z,0.50
2022-12-31T09:59:42.820Z,0.65
2022-12-31T10:02:39.920Z,0.63
2022-12-31T10:05:26.790Z,0.65
2022-12-31T10:08:11.447Z,0.70
2022-12-31T10:10:52.864Z,0.50
2022-12-31T10:13:43.262Z,0.57
2022-12-31T10:19:56.006Z,0.75
2022-12-31T10:22:54.853Z,0.60
2022-12-31T10:25:55.018Z,0.82
2022-12-31T10:28:43.720Z,0.60
2022-12-31T10:31:16.921Z,0.90
2022-12-31T10:34:02.854Z,0.70
2022-12-31T10:36:43.561Z,0.50
2022-12-31T10:39:42.516Z,0.57
2022-12-31T10:42:43.920Z,0.68
2022-12-31T10:45:40.082Z,0.63
2022-12-31T10:48:47.915Z,0.60
2022-12-31T10:51:34.967Z,0.50
2022-12-31T10:54:23.366Z,0.68
2022-12-31T10:57:13.247Z,0.80
2022-12-31T10:59:58.790Z,1.33
2022-12-31T11:02:51.462Z,1.00
2022-12-31T11:05:30.222Z,0.73
2022-12-31T11:08:13.156Z,1.07
2022-12-31T11:10:51.820Z,0.85
2022-12-31T11:13:57.508Z,0.90
2022-12-31T11:16:34.173Z,0.68
2022-12-31T11:19:18.908Z,1.00
2022-12-31T11:21:45.695Z,0.77
2022-12-31T11:24:18.776Z,0.95
2022-12-31T11:26:56.019Z,1.20
2022-12-31T11:29:41.175Z,0.90
2022-12-31T11:32:08.024Z,0.85
2022-12-31T11:34:37.704Z,0.70
2022-12-31T11:39:52.385Z,1.08
2022-12-31T11:42:26.820Z,0.80
2022-12-31T11:45:04.738Z,1.05
2022-12-31T11:47:49.714Z,0.75
2022-12-31T11:50:31.981Z,0.90
2022-12-31T11:53:31.504Z,1.15
2022-12-31T11:56:19.966Z,1.00
2022-12-31T11:58:54.128Z,1.20
2022-12-31T12:01:49.180Z,1.30
2022-12-31T12:04:16.080Z,1.38
2022-12-31T12:06:45.665Z,1.08
2022-12-31T12:09:36.779Z,1.20
2022-12-31T12:12:05.465Z,1.00
2022-12-31T12:14:40.819Z,0.90
2022-12-31T12:17:15.876Z,1.05
2022-12-31T12:19:46.584Z,1.00
2022-12-31T12:22:24.519Z,0.90
2022-12-31T12:25:03.022Z,0.80
2022-12-31T12:27:32.308Z,0.95
2022-12-31T12:30:09.355Z,1.15
2022-12-31T12:32:36.249Z,1.08
2022-12-31T12:35:17.008Z,1.00
2022-12-31T12:37:43.827Z,1.45
2022-12-31T12:40:28.370Z,1.40
2022-12-31T12:43:00.708Z,1.80
2022-12-31T12:45:36.331Z,3.67
2022-12-31T12:48:09.259Z,3.60
2022-12-31T12:50:42.588Z,3.28
2022-12-31T12:53:18.404Z,4.20
2022-12-31T12:55:54.592Z,4.72
2022-12-31T12:58:30.396Z,5.18
2022-12-31T13:01:04.570Z,5.53
2022-12-31T13:04:31.874Z,6.70
2022-12-31T13:07:13.306Z,6.93
2022-12-31T13:10:27.887Z,6.50
2022-12-31T13:13:23.733Z,6.80
2022-12-31T13:15:56.741Z,8.65
2022-12-31T13:18:36.025Z,12.05
2022-12-31T13:24:19.910Z,12.15
2022-12-31T13:26:52.152Z,12.85
2022-12-31T13:29:23.008Z,12.25
2022-12-31T13:31:50.783Z,11.60
2022-12-31T13:34:21.540Z,10.90
2022-12-31T13:36:50.873Z,10.98
2022-12-31T13:39:36.487Z,10.13
2022-12-31T13:42:21.230Z,9.30
2022-12-31T13:45:16.904Z,9.75
2022-12-31T13:47:49.663Z,9.75
2022-12-31T13:50:37.815Z,10.13
2022-12-31T13:53:16.512Z,9.43
2022-12-31T13:55:58.009Z,9.10
2022-12-31T13:58:48.057Z,8.80
2022-12-31T14:01:32.132Z,8.88
2022-12-31T14:04:13.006Z,8.50
2022-12-31T14:06:56.049Z,8.07
2022-12-31T14:09:26.320Z,8.60
2022-12-31T14:12:31.496Z,7.07
2022-12-31T14:15:07.525Z,7.65
2022-12-31T14:18:13.873Z,7.68
2022-12-31T14:20:48.127Z,7.68
2022-12-31T14:23:45.881Z,7.05
2022-12-31T14:26:23.977Z,7.80
2022-12-31T14:29:49.479Z,7.65
2022-12-31T14:32:38.864Z,6.13
2022-12-31T14:35:17.733Z,6.38
2022-12-31T14:37:53.290Z,8.23
2022-12-31T14:40:29.089Z,8.90
2022-12-31T14:43:34.130Z,9.05
2022-12-31T14:46:16.087Z,7.68
2022-12-31T14:49:00.527Z,7.75
2022-12-31T14:51:29.051Z,7.75
2022-12-31T14:53:57.083Z,6.85
2022-12-31T14:56:29.531Z,6.95
2022-12-31T14:59:01.267Z,6.90
2022-12-31T15:01:29.322Z,6.90
2022-12-31T15:03:58.299Z,6.03
2022-12-31T15:06:36.609Z,6.03
2022-12-31T15:09:39.343Z,7.07
2022-12-31T15:12:15.269Z,6.10
2022-12-31T15:15:19.700Z,5.50
2022-12-31T15:18:02.772Z,4.90
2022-12-31T15:20:49.850Z,5.10
2022-12-31T15:23:24.586Z,4.70
2022-12-31T15:26:21.613Z,5.20
2022-12-31T15:29:03.762Z,5.35
2022-12-31T15:31:32.633Z,4.75
2022-12-31T15:34:04.930Z,4.90
2022-12-31T15:36:39.680Z,4.90
2022-12-31T15:39:11.056Z,4.90
2022-12-31T15:42:03.085Z,4.50
2022-12-31T15:44:30.767Z,4.28
2022-12-31T15:49:45.559Z,4.30
2022-12-31T15:52:25.840Z,4.22
2022-12-31T15:54:56.048Z,4.57
2022-12-31T15:57:39.432Z,4.57
2022-12-31T16:00:15.903Z,4.13
2022-12-31T16:02:43.335Z,3.85
2022-12-31T16:05:21.823Z,4.38
2022-12-31T16:07:49.089Z,4.10
2022-12-31T16:10:23.209Z,4.47
2022-12-31T16:12:50.093Z,4.10
2022-12-31T16:18:02.413Z,3.97
2022-12-31T16:20:31.503Z,3.83
2022-12-31T16:23:01.721Z,4.00
2022-12-31T16:25:32.318Z,3.60
2022-12-31T16:28:01.979Z,3.70
2022-12-31T16:30:31.336Z,3.88
2022-12-31T16:33:04.320Z,3.67
2022-12-31T16:35:35.047Z,3.50
2022-12-31T16:38:15.497Z,3.40
2022-12-31T16:40:44.530Z,3.70
2022-12-31T16:43:44.277Z,3.53
2022-12-31T16:48:59.134Z,3.53
2022-12-31T16:51:34.267Z,3.13
2022-12-31T16:54:02.068Z,3.03
2022-12-31T16:56:34.628Z,3.40
2022-12-31T16:59:17.698Z,3.55
2022-12-31T17:01:44.793Z,3.10
2022-12-31T17:04:14.879Z,3.40
2022-12-31T17:06:43.131Z,3.38
2022-12-31T17:09:20.794Z,3.40
2022-12-31T17:11:58.674Z,3.20
2022-12-31T17:14:28.633Z,2.90
2022-12-31T17:17:02.799Z,3.03
2022-12-31T17:19:33.901Z,2.70
2022-12-31T17:22:02.009Z,3.10
2022-12-31T17:24:29.228Z,3.33
2022-12-31T17:29:34.974Z,2.72
2022-12-31T17:32:05.632Z,3.13
2022-12-31T17:34:40.154Z,3.40
2022-12-31T17:37:06.972Z,2.55
2022-12-31T17:39:48.342Z,2.60
2022-12-31T17:42:32.666Z,3.00
2022-12-31T17:45:08.266Z,2.65
2022-12-31T17:47:37.791Z,3.10
2022-12-31T17:50:17.479Z,2.95
2022-12-31T17:52:44.363Z,3.28
2022-12-31T17:55:11.193Z,3.05
2022-12-31T17:57:38.253Z,3.08
2022-12-31T18:00:06.496Z,2.78
2022-12-31T18:02:33.394Z,2.80
2022-12-31T18:05:00.331Z,2.60
2022-12-31T18:07:27.136Z,2.70
2022-12-31T18:09:53.944Z,3.00
2022-12-31T18:12:20.903Z,2.88
2022-12-31T18:14:47.729Z,3.08
2022-12-31T18:17:16.394Z,2.47
2022-12-31T18:20:04.167Z,2.88
2022-12-31T18:22:30.293Z,2.58
2022-12-31T18:24:57.181Z,2.60
2022-12-31T18:27:24.006Z,2.60
2022-12-31T18:29:50.914Z,2.80
2022-12-31T18:32:26.736Z,2.40
2022-12-31T18:34:53.563Z,3.00
2022-12-31T18:37:22.341Z,2.58
2022-12-31T18:39:49.434Z,2.47
2022-12-31T18:42:18.122Z,2.40
2022-12-31T18:44:45.420Z,2.45
2022-12-31T18:47:17.254Z,2.70
2022-12-31T18:49:48.727Z,2.42
2022-12-31T18:52:21.700Z,2.22
2022-12-31T18:54:49.966Z,2.80
2022-12-31T18:57:16.789Z,2.60
2022-12-31T18:59:43.739Z,2.70
2022-12-31T19:02:18.667Z,2.30
2022-12-31T19:04:45.901Z,2.60
2022-12-31T19:07:12.863Z,2.70
2022-12-31T19:09:49.084Z,2.40
2022-12-31T19:12:18.426Z,2.40
2022-12-31T19:14:45.634Z,2.33
2022-12-31T19:17:12.533Z,2.40
2022-12-31T19:19:39.403Z,2.90
2022-12-31T19:22:06.312Z,2.35
2022-12-31T19:24:33.109Z,2.30
2022-12-31T19:27:01.374Z,2.25
2022-12-31T19:29:28.580Z,2.75
2022-12-31T19:31:55.537Z,2.10
2022-12-31T19:34:22.420Z,2.20
2022-12-31T19:36:49.318Z,2.42
2022-12-31T19:39:19.023Z,2.58
2022-12-31T19:44:16.173Z,2.25
2022-12-31T19:46:43.211Z,2.47
2022-12-31T19:49:16.385Z,2.40
2022-12-31T19:51:43.358Z,2.03
2022-12-31T19:54:12.480Z,2.10
2022-12-31T19:56:39.321Z,2.22
2022-12-31T19:59:07.083Z,2.08
2022-12-31T20:01:34.187Z,2.20
2022-12-31T20:04:01.178Z,2.17
2022-12-31T20:06:28.015Z,2.30
2022-12-31T20:08:54.855Z,2.35
2022-12-31T20:13:52.738Z,2.20
2022-12-31T20:16:21.417Z,2.30
2022-12-31T20:18:50.479Z,2.78
2022-12-31T20:21:22.492Z,2.67
2022-12-31T20:23:50.480Z,2.40
2022-12-31T20:26:18.659Z,2.20
2022-12-31T20:28:45.588Z,2.38
2022-12-31T20:31:14.402Z,2.80
2022-12-31T20:33:41.586Z,2.13
2022-12-31T20:36:11.257Z,2.42
2022-12-31T20:41:07.295Z,2.78
2022-12-31T20:43:34.945Z,2.60
2022-12-31T20:46:16.506Z,2.75
2022-12-31T20:48:44.718Z,2.10
2022-12-31T20:51:12.299Z,2.28
2022-12-31T20:53:39.404Z,2.50
2022-12-31T20:56:07.556Z,2.65
2022-12-31T20:58:34.707Z,2.38
2022-12-31T21:01:01.666Z,2.40
2022-12-31T21:04:03.875Z,2.70
2022-12-31T21:06:15.931Z,2.28
2022-12-31T21:08:43.100Z,2.22
2022-12-31T21:11:29.035Z,2.33
2022-12-31T21:13:58.847Z,1.88
2022-12-31T21:16:26.203Z,2.08
2022-12-31T21:18:54.218Z,2.00
2022-12-31T21:21:21.767Z,2.45
2022-12-31T21:23:48.593Z,1.90
2022-12-31T21:26:15.507Z,1.88
2022-12-31T21:28:42.395Z,2.00
2022-12-31T21:31:11.294Z,2.17
2022-12-31T21:33:38.213Z,2.03
2022-12-31T21:36:05.341Z,1.70
2022-12-31T21:38:32.229Z,2.10
2022-12-31T21:41:03.462Z,2.20
2022-12-31T21:43:30.668Z,1.80
2022-12-31T21:46:02.608Z,1.90
2022-12-31T21:48:29.661Z,2.00
2022-12-31T21:53:38.470Z,2.08
2022-12-31T21:56:09.032Z,1.92
2022-12-31T21:58:41.448Z,1.95
2022-12-31T22:01:34.554Z,1.80
2022-12-31T22:04:01.407Z,2.00
2022-12-31T22:08:56.118Z,1.75
2022-12-31T22:11:25.668Z,1.58
2022-12-31T22:13:53.448Z,1.90
2022-12-31T22:16:20.858Z,2.20
2022-12-31T22:18:47.972Z,1.63
2022-12-31T22:21:25.462Z,1.98
2022-12-31T22:23:58.815Z,1.58
2022-12-31T22:26:27.853Z,1.92
2022-12-31T22:28:59.699Z,1.70
2022-12-31T22:31:30.069Z,1.52
2022-12-31T22:33:57.742Z,1.67
2022-12-31T22:36:24.641Z,1.80
2022-12-31T22:38:55.515Z,2.08
2022-12-31T22:41:23.269Z,1.65
2022-12-31T22:43:57.224Z,1.50
2022-12-31T22:46:29.439Z,1.52
2022-12-31T22:48:58.835Z,1.60
2022-12-31T22:51:30.516Z,1.58
2022-12-31T22:54:13.293Z,1.48
2022-12-31T22:56:40.243Z,1.50
2022-12-31T22:59:07.042Z,1.60
2022-12-31T23:01:34.537Z,1.50
2022-12-31T23:04:01.501Z,1.60
2022-12-31T23:06:29.159Z,1.52
2022-12-31T23:09:15.074Z,1.60
2022-12-31T23:11:43.339Z,1.35
2022-12-31T23:14:34.977Z,1.63
2022-12-31T23:17:30.804Z,1.77
2022-12-31T23:20:18.919Z,1.50
2022-12-31T23:23:05.572Z,1.70
2022-12-31T23:25:43.555Z,1.50
2022-12-31T23:28:16.873Z,1.75
2022-12-31T23:30:44.210Z,1.60
2022-12-31T23:33:16.720Z,1.45
2022-12-31T23:35:43.625Z,1.70
2022-12-31T23:38:10.507Z,1.52
2022-12-31T23:40:37.342Z,1.48
2022-12-31T23:43:06.295Z,1.40
2022-12-31T23:45:34.409Z,1.30
2022-12-31T23:48:01.422Z,1.60
2022-12-31T23:50:28.249Z,1.50
2022-12-31T23:52:55.300Z,1.20
2022-12-31T23:55:22.119Z,1.60
2022-12-31T23:57:48.953Z,1.50
